sensor_id;sensor_type;location;lat;lon;timestamp;temperature;humidity
24091;DHT22;12272;52.426;17.100;2023-01-05T00:03:55;15.60;99.90
24091;DHT22;12272;52.426;17.100;2023-01-05T00:08:58;15.60;99.90
24091;DHT22;12272;52.426;17.100;2023-01-05T00:14:02;15.40;99.90
24091;DHT22;12272;52.426;17.100;2023-01-05T00:19:23;15.20;99.90
24091;DHT22;12272;52.426;17.100;2023-01-05T00:24:44;15.30;99.90
24091;DHT22;12272;52.426;17.100;2023-01-05T00:29:47;15.30;99.90
24091;DHT22;12272;52.426;17.100;2023-01-05T00:34:50;15.30;99.90
24091;DHT22;12272;52.426;17.100;2023-01-05T00:39:55;15.10;99.90
24091;DHT22;12272;52.426;17.100;2023-01-05T00:44:58;15.40;99.90
24091;DHT22;12272;52.426;17.100;2023-01-05T00:50:00;15.20;99.90
24091;DHT22;12272;52.426;17.100;2023-01-05T00:55:03;15.00;99.90
24091;DHT22;12272;52.426;17.100;2023-01-05T01:00:09;15.40;99.90
24091;DHT22;12272;52.426;17.100;2023-01-05T01:05:13;15.20;99.90
24091;DHT22;12272;52.426;17.100;2023-01-05T01:10:15;15.20;99.90
24091;DHT22;12272;52.426;17.100;2023-01-05T01:15:18;15.50;99.90
24091;DHT22;12272;52.426;17.100;2023-01-05T01:20:20;15.10;99.90
24091;DHT22;12272;52.426;17.100;2023-01-05T01:25:23;13.70;99.90
24091;DHT22;12272;52.426;17.100;2023-01-05T01:30:26;13.00;99.90
24091;DHT22;12272;52.426;17.100;2023-01-05T01:35:28;13.40;99.90
24091;DHT22;12272;52.426;17.100;2023-01-05T01:40:38;14.40;99.90
24091;DHT22;12272;52.426;17.100;2023-01-05T01:45:42;14.30;99.90
24091;DHT22;12272;52.426;17.100;2023-01-05T01:50:51;14.00;99.90
24091;DHT22;12272;52.426;17.100;2023-01-05T01:55:57;13.90;99.90
24091;DHT22;12272;52.426;17.100;2023-01-05T02:01:01;14.10;99.90
24091;DHT22;12272;52.426;17.100;2023-01-05T02:06:05;14.00;99.90
24091;DHT22;12272;52.426;17.100;2023-01-05T02:16:57;14.30;99.90
24091;DHT22;12272;52.426;17.100;2023-01-05T02:33:30;13.90;99.90
24091;DHT22;12272;52.426;17.100;2023-01-05T02:38:45;14.10;99.90
24091;DHT22;12272;52.426;17.100;2023-01-05T02:43:51;14.70;99.90
24091;DHT22;12272;52.426;17.100;2023-01-05T02:48:55;14.50;99.90
24091;DHT22;12272;52.426;17.100;2023-01-05T02:54:16;14.50;99.90
24091;DHT22;12272;52.426;17.100;2023-01-05T02:59:28;14.50;99.90
24091;DHT22;12272;52.426;17.100;2023-01-05T03:04:45;15.00;99.90
24091;DHT22;12272;52.426;17.100;2023-01-05T03:09:49;14.70;99.90
24091;DHT22;12272;52.426;17.100;2023-01-05T03:20:03;15.10;99.90
24091;DHT22;12272;52.426;17.100;2023-01-05T03:36:11;15.10;99.90
24091;DHT22;12272;52.426;17.100;2023-01-05T03:41:15;14.90;99.90
24091;DHT22;12272;52.426;17.100;2023-01-05T03:46:20;15.10;99.90
24091;DHT22;12272;52.426;17.100;2023-01-05T03:51:24;15.00;99.90
24091;DHT22;12272;52.426;17.100;2023-01-05T03:56:26;15.40;99.90
24091;DHT22;12272;52.426;17.100;2023-01-05T04:01:31;15.00;99.90
24091;DHT22;12272;52.426;17.100;2023-01-05T04:06:35;15.00;99.90
24091;DHT22;12272;52.426;17.100;2023-01-05T04:11:39;15.00;99.90
24091;DHT22;12272;52.426;17.100;2023-01-05T04:16:42;15.10;99.90
24091;DHT22;12272;52.426;17.100;2023-01-05T04:21:53;15.10;99.90
24091;DHT22;12272;52.426;17.100;2023-01-05T04:26:58;15.30;99.90
24091;DHT22;12272;52.426;17.100;2023-01-05T04:32:02;15.50;99.90
24091;DHT22;12272;52.426;17.100;2023-01-05T04:37:04;15.50;99.90
24091;DHT22;12272;52.426;17.100;2023-01-05T04:42:08;15.20;99.90
24091;DHT22;12272;52.426;17.100;2023-01-05T04:47:12;15.30;99.90
24091;DHT22;12272;52.426;17.100;2023-01-05T04:52:16;15.30;99.90
24091;DHT22;12272;52.426;17.100;2023-01-05T04:57:19;15.60;99.90
24091;DHT22;12272;52.426;17.100;2023-01-05T05:02:23;15.30;99.90
24091;DHT22;12272;52.426;17.100;2023-01-05T05:07:26;15.40;99.90
24091;DHT22;12272;52.426;17.100;2023-01-05T05:12:29;15.30;99.90
24091;DHT22;12272;52.426;17.100;2023-01-05T05:17:32;14.60;99.90
24091;DHT22;12272;52.426;17.100;2023-01-05T05:22:35;14.60;99.90
24091;DHT22;12272;52.426;17.100;2023-01-05T05:27:38;15.00;99.90
24091;DHT22;12272;52.426;17.100;2023-01-05T05:32:40;14.90;99.90
24091;DHT22;12272;52.426;17.100;2023-01-05T05:37:45;15.10;99.90
24091;DHT22;12272;52.426;17.100;2023-01-05T05:42:55;14.70;99.90
24091;DHT22;12272;52.426;17.100;2023-01-05T05:47:58;15.10;99.90
24091;DHT22;12272;52.426;17.100;2023-01-05T05:53:02;15.30;99.90
24091;DHT22;12272;52.426;17.100;2023-01-05T05:58:05;14.40;99.90
24091;DHT22;12272;52.426;17.100;2023-01-05T06:03:07;14.40;99.90
24091;DHT22;12272;52.426;17.100;2023-01-05T06:08:10;14.50;99.90
24091;DHT22;12272;52.426;17.100;2023-01-05T06:13:12;14.60;99.90
24091;DHT22;12272;52.426;17.100;2023-01-05T06:18:16;14.10;99.90
24091;DHT22;12272;52.426;17.100;2023-01-05T06:23:18;14.20;99.90
24091;DHT22;12272;52.426;17.100;2023-01-05T06:28:21;14.70;99.90
24091;DHT22;12272;52.426;17.100;2023-01-05T06:33:24;14.50;99.90
24091;DHT22;12272;52.426;17.100;2023-01-05T06:38:26;14.50;99.90
24091;DHT22;12272;52.426;17.100;2023-01-05T06:43:29;14.70;99.90
24091;DHT22;12272;52.426;17.100;2023-01-05T06:48:32;14.50;99.90
24091;DHT22;12272;52.426;17.100;2023-01-05T06:53:37;14.30;99.90
24091;DHT22;12272;52.426;17.100;2023-01-05T06:58:40;13.60;99.90
24091;DHT22;12272;52.426;17.100;2023-01-05T07:03:42;13.60;99.90
24091;DHT22;12272;52.426;17.100;2023-01-05T07:08:45;14.10;99.90
24091;DHT22;12272;52.426;17.100;2023-01-05T07:13:48;13.70;99.90
24091;DHT22;12272;52.426;17.100;2023-01-05T07:18:51;14.50;98.60
24091;DHT22;12272;52.426;17.100;2023-01-05T07:23:54;14.10;99.90
24091;DHT22;12272;52.426;17.100;2023-01-05T07:28:57;14.50;99.90
24091;DHT22;12272;52.426;17.100;2023-01-05T07:34:00;14.10;99.90
24091;DHT22;12272;52.426;17.100;2023-01-05T07:39:03;14.80;99.90
24091;DHT22;12272;52.426;17.100;2023-01-05T07:44:05;14.20;99.90
24091;DHT22;12272;52.426;17.100;2023-01-05T07:49:08;14.60;99.90
24091;DHT22;12272;52.426;17.100;2023-01-05T07:54:12;14.90;99.90
24091;DHT22;12272;52.426;17.100;2023-01-05T07:59:14;14.70;99.90
24091;DHT22;12272;52.426;17.100;2023-01-05T08:04:17;14.00;99.90
24091;DHT22;12272;52.426;17.100;2023-01-05T08:09:19;14.10;99.90
24091;DHT22;12272;52.426;17.100;2023-01-05T08:14:42;14.90;99.90
24091;DHT22;12272;52.426;17.100;2023-01-05T08:19:45;15.00;99.90
24091;DHT22;12272;52.426;17.100;2023-01-05T08:24:48;14.40;99.90
24091;DHT22;12272;52.426;17.100;2023-01-05T08:29:50;14.20;99.90
24091;DHT22;12272;52.426;17.100;2023-01-05T08:34:53;11.50;99.90
24091;DHT22;12272;52.426;17.100;2023-01-05T08:39:57;11.80;99.90
24091;DHT22;12272;52.426;17.100;2023-01-05T08:45:00;12.10;99.90
24091;DHT22;12272;52.426;17.100;2023-01-05T08:50:02;12.20;99.90
24091;DHT22;12272;52.426;17.100;2023-01-05T08:55:05;11.90;99.90
24091;DHT22;12272;52.426;17.100;2023-01-05T09:00:09;12.00;99.90
24091;DHT22;12272;52.426;17.100;2023-01-05T09:05:12;12.00;99.90
24091;DHT22;12272;52.426;17.100;2023-01-05T09:10:15;12.50;99.90
24091;DHT22;12272;52.426;17.100;2023-01-05T09:15:18;12.30;99.90
24091;DHT22;12272;52.426;17.100;2023-01-05T09:20:20;12.90;99.90
24091;DHT22;12272;52.426;17.100;2023-01-05T09:25:22;13.00;99.90
24091;DHT22;12272;52.426;17.100;2023-01-05T09:30:25;13.40;99.90
24091;DHT22;12272;52.426;17.100;2023-01-05T09:35:28;14.60;99.90
24091;DHT22;12272;52.426;17.100;2023-01-05T09:40:34;14.80;99.90
24091;DHT22;12272;52.426;17.100;2023-01-05T09:45:45;13.90;99.90
24091;DHT22;12272;52.426;17.100;2023-01-05T09:50:52;14.20;99.90
24091;DHT22;12272;52.426;17.100;2023-01-05T09:55:58;13.70;99.90
24091;DHT22;12272;52.426;17.100;2023-01-05T10:12:50;14.00;99.90
24091;DHT22;12272;52.426;17.100;2023-01-05T10:18:16;14.70;99.90
24091;DHT22;12272;52.426;17.100;2023-01-05T10:29:06;14.30;99.90
24091;DHT22;12272;52.426;17.100;2023-01-05T10:34:22;14.80;99.90
24091;DHT22;12272;52.426;17.100;2023-01-05T10:45:09;15.10;99.90
24091;DHT22;12272;52.426;17.100;2023-01-05T10:50:38;15.80;99.90
24091;DHT22;12272;52.426;17.100;2023-01-05T11:01:25;16.10;99.90
24091;DHT22;12272;52.426;17.100;2023-01-05T11:06:28;15.90;99.90
24091;DHT22;12272;52.426;17.100;2023-01-05T11:11:31;16.00;99.90
24091;DHT22;12272;52.426;17.100;2023-01-05T11:16:35;15.50;99.90
24091;DHT22;12272;52.426;17.100;2023-01-05T11:21:41;15.80;99.90
24091;DHT22;12272;52.426;17.100;2023-01-05T11:27:00;15.30;99.90
24091;DHT22;12272;52.426;17.100;2023-01-05T11:32:09;15.80;99.90
24091;DHT22;12272;52.426;17.100;2023-01-05T11:37:27;15.50;99.90
24091;DHT22;12272;52.426;17.100;2023-01-05T11:42:34;15.20;99.40
24091;DHT22;12272;52.426;17.100;2023-01-05T11:47:46;15.40;99.90
24091;DHT22;12272;52.426;17.100;2023-01-05T11:52:50;15.90;99.90
24091;DHT22;12272;52.426;17.100;2023-01-05T11:58:16;16.00;99.90
24091;DHT22;12272;52.426;17.100;2023-01-05T12:09:06;15.50;99.90
24091;DHT22;12272;52.426;17.100;2023-01-05T12:19:53;15.90;99.90
24091;DHT22;12272;52.426;17.100;2023-01-05T12:25:20;16.20;99.90
24091;DHT22;12272;52.426;17.100;2023-01-05T12:47:13;15.50;99.90
24091;DHT22;12272;52.426;17.100;2023-01-05T12:52:38;15.20;99.90
24091;DHT22;12272;52.426;17.100;2023-01-05T12:57:45;15.30;99.90
24091;DHT22;12272;52.426;17.100;2023-01-05T13:03:44;14.60;99.90
24091;DHT22;12272;52.426;17.100;2023-01-05T13:08:39;14.20;99.90
24091;DHT22;12272;52.426;17.100;2023-01-05T13:20:41;14.50;99.90
24091;DHT22;12272;52.426;17.100;2023-01-05T13:26:15;14.50;99.90
24091;DHT22;12272;52.426;17.100;2023-01-05T13:31:29;15.20;99.90
24091;DHT22;12272;52.426;17.100;2023-01-05T13:47:51;14.90;99.90
24091;DHT22;12272;52.426;17.100;2023-01-05T13:53:13;14.70;99.90
24091;DHT22;12272;52.426;17.100;2023-01-05T14:03:48;14.00;99.90
24091;DHT22;12272;52.426;17.100;2023-01-05T14:09:04;14.50;99.90
24091;DHT22;12272;52.426;17.100;2023-01-05T14:14:27;14.60;99.90
24091;DHT22;12272;52.426;17.100;2023-01-05T14:19:49;13.50;99.90
24091;DHT22;12272;52.426;17.100;2023-01-05T14:24:52;14.20;99.90
24091;DHT22;12272;52.426;17.100;2023-01-05T14:29:58;12.90;99.90
24091;DHT22;12272;52.426;17.100;2023-01-05T14:45:33;11.30;99.90
24091;DHT22;12272;52.426;17.100;2023-01-05T14:50:41;11.00;99.90
24091;DHT22;12272;52.426;17.100;2023-01-05T15:01:00;11.50;99.90
24091;DHT22;12272;52.426;17.100;2023-01-05T15:06:08;11.70;99.90
24091;DHT22;12272;52.426;17.100;2023-01-05T15:22:28;12.50;98.50
24091;DHT22;12272;52.426;17.100;2023-01-05T15:27:56;11.50;99.90
24091;DHT22;12272;52.426;17.100;2023-01-05T15:38:27;12.60;98.30
24091;DHT22;12272;52.426;17.100;2023-01-05T15:43:31;12.50;99.90
24091;DHT22;12272;52.426;17.100;2023-01-05T15:48:38;12.80;96.80
24091;DHT22;12272;52.426;17.100;2023-01-05T15:53:57;12.30;95.00
24091;DHT22;12272;52.426;17.100;2023-01-05T15:59:02;10.20;99.90
24091;DHT22;12272;52.426;17.100;2023-01-05T16:04:07;12.40;99.90
24091;DHT22;12272;52.426;17.100;2023-01-05T16:09:32;12.80;99.90
24091;DHT22;12272;52.426;17.100;2023-01-05T16:14:42;13.10;99.90
24091;DHT22;12272;52.426;17.100;2023-01-05T16:19:56;12.50;99.90
24091;DHT22;12272;52.426;17.100;2023-01-05T16:25:22;12.40;99.90
24091;DHT22;12272;52.426;17.100;2023-01-05T16:30:35;13.00;99.90
24091;DHT22;12272;52.426;17.100;2023-01-05T16:35:57;12.50;99.90
24091;DHT22;12272;52.426;17.100;2023-01-05T16:46:43;13.10;99.90
24091;DHT22;12272;52.426;17.100;2023-01-05T16:51:46;12.90;99.90
24091;DHT22;12272;52.426;17.100;2023-01-05T16:56:57;13.50;99.90
24091;DHT22;12272;52.426;17.100;2023-01-05T17:02:02;12.40;99.90
24091;DHT22;12272;52.426;17.100;2023-01-05T17:07:08;11.80;96.10
24091;DHT22;12272;52.426;17.100;2023-01-05T17:17:14;6.90;99.90
24091;DHT22;12272;52.426;17.100;2023-01-05T17:22:17;5.50;99.90
24091;DHT22;12272;52.426;17.100;2023-01-05T17:27:20;4.90;99.90
24091;DHT22;12272;52.426;17.100;2023-01-05T17:32:22;4.60;99.90
24091;DHT22;12272;52.426;17.100;2023-01-05T17:37:25;4.60;99.90
24091;DHT22;12272;52.426;17.100;2023-01-05T17:42:28;4.40;99.90
24091;DHT22;12272;52.426;17.100;2023-01-05T17:57:53;4.30;99.90
24091;DHT22;12272;52.426;17.100;2023-01-05T18:02:56;4.20;99.90
24091;DHT22;12272;52.426;17.100;2023-01-05T18:07:58;4.10;99.90
24091;DHT22;12272;52.426;17.100;2023-01-05T18:13:01;4.10;99.90
24091;DHT22;12272;52.426;17.100;2023-01-05T18:34:52;8.80;99.90
24091;DHT22;12272;52.426;17.100;2023-01-05T18:39:55;9.90;99.90
24091;DHT22;12272;52.426;17.100;2023-01-05T18:44:58;10.70;99.90
24091;DHT22;12272;52.426;17.100;2023-01-05T18:50:15;10.40;99.90
24091;DHT22;12272;52.426;17.100;2023-01-05T18:55:18;10.80;99.90
24091;DHT22;12272;52.426;17.100;2023-01-05T19:00:21;10.60;99.90
24091;DHT22;12272;52.426;17.100;2023-01-05T19:05:31;11.20;99.90
24091;DHT22;12272;52.426;17.100;2023-01-05T19:15:37;11.90;99.90
24091;DHT22;12272;52.426;17.100;2023-01-05T19:20:40;11.80;99.90
24091;DHT22;12272;52.426;17.100;2023-01-05T19:25:43;11.90;99.90
24091;DHT22;12272;52.426;17.100;2023-01-05T19:30:45;12.00;99.90
24091;DHT22;12272;52.426;17.100;2023-01-05T19:35:48;11.90;99.90
24091;DHT22;12272;52.426;17.100;2023-01-05T19:40:52;11.20;99.90
24091;DHT22;12272;52.426;17.100;2023-01-05T19:46:02;10.70;99.90
24091;DHT22;12272;52.426;17.100;2023-01-05T19:51:13;11.80;99.90
24091;DHT22;12272;52.426;17.100;2023-01-05T19:56:17;11.60;99.90
24091;DHT22;12272;52.426;17.100;2023-01-05T20:01:21;12.20;99.90
24091;DHT22;12272;52.426;17.100;2023-01-05T20:06:28;12.20;99.90
24091;DHT22;12272;52.426;17.100;2023-01-05T20:11:34;12.70;97.70
24091;DHT22;12272;52.426;17.100;2023-01-05T20:16:38;12.10;94.00
24091;DHT22;12272;52.426;17.100;2023-01-05T20:21:42;11.60;97.70
24091;DHT22;12272;52.426;17.100;2023-01-05T20:26:45;12.00;99.40
24091;DHT22;12272;52.426;17.100;2023-01-05T20:32:02;8.80;99.90
24091;DHT22;12272;52.426;17.100;2023-01-05T20:37:08;9.20;99.90
24091;DHT22;12272;52.426;17.100;2023-01-05T20:42:11;10.90;99.90
24091;DHT22;12272;52.426;17.100;2023-01-05T20:47:16;10.90;99.10
24091;DHT22;12272;52.426;17.100;2023-01-05T20:52:20;11.20;99.90
24091;DHT22;12272;52.426;17.100;2023-01-05T20:57:23;10.80;99.70
24091;DHT22;12272;52.426;17.100;2023-01-05T21:02:26;11.70;99.90
24091;DHT22;12272;52.426;17.100;2023-01-05T21:07:29;11.50;99.90
24091;DHT22;12272;52.426;17.100;2023-01-05T21:12:32;12.30;99.90
24091;DHT22;12272;52.426;17.100;2023-01-05T21:17:35;11.50;99.90
24091;DHT22;12272;52.426;17.100;2023-01-05T21:22:39;11.70;99.90
24091;DHT22;12272;52.426;17.100;2023-01-05T21:27:42;12.00;99.90
24091;DHT22;12272;52.426;17.100;2023-01-05T21:32:45;11.70;99.90
24091;DHT22;12272;52.426;17.100;2023-01-05T21:37:48;11.30;99.60
24091;DHT22;12272;52.426;17.100;2023-01-05T21:42:52;11.30;99.90
24091;DHT22;12272;52.426;17.100;2023-01-05T21:47:55;11.60;99.90
24091;DHT22;12272;52.426;17.100;2023-01-05T21:52:59;9.70;99.90
24091;DHT22;12272;52.426;17.100;2023-01-05T21:58:20;10.70;99.90
24091;DHT22;12272;52.426;17.100;2023-01-05T22:03:23;10.50;99.90
24091;DHT22;12272;52.426;17.100;2023-01-05T22:08:25;11.10;99.90
24091;DHT22;12272;52.426;17.100;2023-01-05T22:13:28;10.40;99.90
24091;DHT22;12272;52.426;17.100;2023-01-05T22:18:31;10.40;98.60
24091;DHT22;12272;52.426;17.100;2023-01-05T22:23:35;9.90;99.90
24091;DHT22;12272;52.426;17.100;2023-01-05T22:28:39;10.70;99.90
24091;DHT22;12272;52.426;17.100;2023-01-05T22:33:44;10.00;99.90
24091;DHT22;12272;52.426;17.100;2023-01-05T22:38:49;9.80;99.90
24091;DHT22;12272;52.426;17.100;2023-01-05T22:43:52;9.20;99.90
24091;DHT22;12272;52.426;17.100;2023-01-05T22:48:57;10.10;99.90
24091;DHT22;12272;52.426;17.100;2023-01-05T22:54:00;10.20;99.90
24091;DHT22;12272;52.426;17.100;2023-01-05T22:59:03;10.60;99.90
24091;DHT22;12272;52.426;17.100;2023-01-05T23:04:06;10.40;99.90
24091;DHT22;12272;52.426;17.100;2023-01-05T23:09:12;10.50;99.90
24091;DHT22;12272;52.426;17.100;2023-01-05T23:14:15;9.40;99.90
24091;DHT22;12272;52.426;17.100;2023-01-05T23:19:20;10.00;99.90
24091;DHT22;12272;52.426;17.100;2023-01-05T23:24:25;10.10;99.90
24091;DHT22;12272;52.426;17.100;2023-01-05T23:29:28;10.40;99.90
24091;DHT22;12272;52.426;17.100;2023-01-05T23:34:31;10.20;99.90
24091;DHT22;12272;52.426;17.100;2023-01-05T23:39:33;10.40;99.90
24091;DHT22;12272;52.426;17.100;2023-01-05T23:44:36;10.10;99.90
24091;DHT22;12272;52.426;17.100;2023-01-05T23:49:38;9.80;99.90
24091;DHT22;12272;52.426;17.100;2023-01-05T23:54:53;9.70;99.90
